Portada
METAR-TAF:

METAR-TAF

Aeroports :

Ardabil, Iran

latitud: 38-19-35N, longitud: 048-25-28E, altitud: 1315 m

Observació

L'informe es va fer fa 1 hora i 24 minuts, a les 18:50 UTC
Vent 6 kt del Nord-Est
Temperatura 2°C
Humitat 93%
Pressió 1018 hPa
Visibilitat: 2000 m
Cel cobert a una alçada de 300 ft
Parcialment cobert per la boira, boirina

METAR: OITL 221850Z 05006KT 2000 PRFG BR OVC003 02/01 Q1018

Hora: 00:44 (20:14 UTC)


TAF: manca

Observacions i pronòstics meteorològics de més de 4000 aeroports (METAR i TAF).

Les estacions disponibles són els punts grocs i vermells al mapa.

Posi el ratolí al punt desitjat per veure el nom de l'estació.

Feu clic per veure les observacions i els pronòstics meteorològics.

Per canviar el mapa: feu clic els botons verds amb una creu de color negre per apropar; al botó verd amb un guió per allunyar la imatge; o en les fletxes verdes per a mapes adjacents.


METAR-TAF: